sensor_id;sensor_type;location;lat;lon;timestamp;P1;durP1;ratioP1;P2;durP2;ratioP2
48871;SDS011;36154;51.674;7.824;2023-04-24T00:01:46;0.30;;;0.20;;
48871;SDS011;36154;51.674;7.824;2023-04-24T00:04:12;0.10;;;0.10;;
48871;SDS011;36154;51.674;7.824;2023-04-24T00:06:39;0.20;;;0.20;;
48871;SDS011;36154;51.674;7.824;2023-04-24T00:09:07;0.65;;;0.20;;
48871;SDS011;36154;51.674;7.824;2023-04-24T00:11:34;0.10;;;0.10;;
48871;SDS011;36154;51.674;7.824;2023-04-24T00:14:00;0.10;;;0.10;;
48871;SDS011;36154;51.674;7.824;2023-04-24T00:16:25;0.17;;;0.17;;
48871;SDS011;36154;51.674;7.824;2023-04-24T00:18:50;0.22;;;0.22;;
48871;SDS011;36154;51.674;7.824;2023-04-24T00:21:17;0.20;;;0.20;;
48871;SDS011;36154;51.674;7.824;2023-04-24T00:23:43;0.20;;;0.20;;
48871;SDS011;36154;51.674;7.824;2023-04-24T00:26:09;0.20;;;0.20;;
48871;SDS011;36154;51.674;7.824;2023-04-24T00:28:34;0.10;;;0.10;;
48871;SDS011;36154;51.674;7.824;2023-04-24T00:30:59;0.10;;;0.10;;
48871;SDS011;36154;51.674;7.824;2023-04-24T00:33:25;0.20;;;0.20;;
48871;SDS011;36154;51.674;7.824;2023-04-24T00:35:50;0.22;;;0.22;;
48871;SDS011;36154;51.674;7.824;2023-04-24T00:38:15;0.10;;;0.10;;
48871;SDS011;36154;51.674;7.824;2023-04-24T00:40:41;0.10;;;0.10;;
48871;SDS011;36154;51.674;7.824;2023-04-24T00:43:06;0.20;;;0.20;;
48871;SDS011;36154;51.674;7.824;2023-04-24T00:45:31;0.20;;;0.20;;
48871;SDS011;36154;51.674;7.824;2023-04-24T00:47:57;0.10;;;0.10;;
48871;SDS011;36154;51.674;7.824;2023-04-24T00:50:23;0.68;;;0.10;;
48871;SDS011;36154;51.674;7.824;2023-04-24T00:52:48;0.10;;;0.10;;
48871;SDS011;36154;51.674;7.824;2023-04-24T00:55:14;0.10;;;0.10;;
48871;SDS011;36154;51.674;7.824;2023-04-24T00:57:39;0.13;;;0.10;;
48871;SDS011;36154;51.674;7.824;2023-04-24T01:00:05;0.20;;;0.20;;
48871;SDS011;36154;51.674;7.824;2023-04-24T01:02:37;0.10;;;0.10;;
48871;SDS011;36154;51.674;7.824;2023-04-24T01:05:05;0.15;;;0.15;;
48871;SDS011;36154;51.674;7.824;2023-04-24T01:07:32;0.15;;;0.10;;
48871;SDS011;36154;51.674;7.824;2023-04-24T01:09:58;0.10;;;0.10;;
48871;SDS011;36154;51.674;7.824;2023-04-24T01:12:23;0.22;;;0.20;;
48871;SDS011;36154;51.674;7.824;2023-04-24T01:14:49;0.10;;;0.10;;
48871;SDS011;36154;51.674;7.824;2023-04-24T01:17:14;0.20;;;0.13;;
48871;SDS011;36154;51.674;7.824;2023-04-24T01:19:40;0.10;;;0.10;;
48871;SDS011;36154;51.674;7.824;2023-04-24T01:22:13;0.20;;;0.20;;
48871;SDS011;36154;51.674;7.824;2023-04-24T01:24:39;0.10;;;0.10;;
48871;SDS011;36154;51.674;7.824;2023-04-24T01:27:05;0.10;;;0.10;;
48871;SDS011;36154;51.674;7.824;2023-04-24T01:29:31;0.10;;;0.10;;
48871;SDS011;36154;51.674;7.824;2023-04-24T01:31:56;0.10;;;0.10;;
48871;SDS011;36154;51.674;7.824;2023-04-24T01:34:23;0.10;;;0.10;;
48871;SDS011;36154;51.674;7.824;2023-04-24T01:36:48;0.30;;;0.10;;
48871;SDS011;36154;51.674;7.824;2023-04-24T01:39:14;0.15;;;0.15;;
48871;SDS011;36154;51.674;7.824;2023-04-24T01:41:40;0.10;;;0.10;;
48871;SDS011;36154;51.674;7.824;2023-04-24T01:44:05;0.20;;;0.20;;
48871;SDS011;36154;51.674;7.824;2023-04-24T01:46:31;0.10;;;0.10;;
48871;SDS011;36154;51.674;7.824;2023-04-24T01:48:56;0.10;;;0.10;;
48871;SDS011;36154;51.674;7.824;2023-04-24T01:51:25;0.10;;;0.10;;
48871;SDS011;36154;51.674;7.824;2023-04-24T01:53:51;0.20;;;0.20;;
48871;SDS011;36154;51.674;7.824;2023-04-24T01:56:19;0.13;;;0.13;;
48871;SDS011;36154;51.674;7.824;2023-04-24T01:58:46;0.10;;;0.10;;
48871;SDS011;36154;51.674;7.824;2023-04-24T02:01:18;0.10;;;0.10;;
48871;SDS011;36154;51.674;7.824;2023-04-24T02:03:44;0.10;;;0.10;;
48871;SDS011;36154;51.674;7.824;2023-04-24T02:06:09;0.15;;;0.10;;
48871;SDS011;36154;51.674;7.824;2023-04-24T02:08:35;0.10;;;0.10;;
48871;SDS011;36154;51.674;7.824;2023-04-24T02:11:00;0.38;;;0.20;;
48871;SDS011;36154;51.674;7.824;2023-04-24T02:13:27;0.17;;;0.17;;
48871;SDS011;36154;51.674;7.824;2023-04-24T02:15:52;0.20;;;0.15;;
48871;SDS011;36154;51.674;7.824;2023-04-24T02:18:17;0.20;;;0.20;;
48871;SDS011;36154;51.674;7.824;2023-04-24T02:20:42;0.10;;;0.10;;
48871;SDS011;36154;51.674;7.824;2023-04-24T02:23:08;0.20;;;0.20;;
48871;SDS011;36154;51.674;7.824;2023-04-24T02:25:33;0.15;;;0.15;;
48871;SDS011;36154;51.674;7.824;2023-04-24T02:27:58;0.10;;;0.10;;
48871;SDS011;36154;51.674;7.824;2023-04-24T02:30:23;0.30;;;0.20;;
48871;SDS011;36154;51.674;7.824;2023-04-24T02:32:49;0.10;;;0.10;;
48871;SDS011;36154;51.674;7.824;2023-04-24T02:35:14;0.10;;;0.10;;
48871;SDS011;36154;51.674;7.824;2023-04-24T02:37:39;0.17;;;0.10;;
48871;SDS011;36154;51.674;7.824;2023-04-24T02:40:05;0.47;;;0.20;;
48871;SDS011;36154;51.674;7.824;2023-04-24T02:42:30;0.10;;;0.10;;
48871;SDS011;36154;51.674;7.824;2023-04-24T02:44:56;0.10;;;0.10;;
48871;SDS011;36154;51.674;7.824;2023-04-24T02:47:21;0.10;;;0.10;;
48871;SDS011;36154;51.674;7.824;2023-04-24T02:49:46;0.30;;;0.22;;
48871;SDS011;36154;51.674;7.824;2023-04-24T02:52:11;0.10;;;0.10;;
48871;SDS011;36154;51.674;7.824;2023-04-24T02:54:38;0.10;;;0.10;;
48871;SDS011;36154;51.674;7.824;2023-04-24T02:57:03;0.10;;;0.10;;
48871;SDS011;36154;51.674;7.824;2023-04-24T02:59:28;0.00;;;0.00;;
48871;SDS011;36154;51.674;7.824;2023-04-24T03:01:54;0.10;;;0.10;;
48871;SDS011;36154;51.674;7.824;2023-04-24T03:04:19;0.10;;;0.10;;
48871;SDS011;36154;51.674;7.824;2023-04-24T03:06:45;0.05;;;0.05;;
48871;SDS011;36154;51.674;7.824;2023-04-24T03:09:10;0.10;;;0.10;;
48871;SDS011;36154;51.674;7.824;2023-04-24T03:11:36;0.22;;;0.13;;
48871;SDS011;36154;51.674;7.824;2023-04-24T03:14:04;0.10;;;0.10;;
48871;SDS011;36154;51.674;7.824;2023-04-24T03:16:29;0.10;;;0.10;;
48871;SDS011;36154;51.674;7.824;2023-04-24T03:18:55;0.10;;;0.10;;
48871;SDS011;36154;51.674;7.824;2023-04-24T03:21:20;0.05;;;0.05;;
48871;SDS011;36154;51.674;7.824;2023-04-24T03:23:45;0.13;;;0.13;;
48871;SDS011;36154;51.674;7.824;2023-04-24T03:26:11;0.10;;;0.10;;
48871;SDS011;36154;51.674;7.824;2023-04-24T03:28:36;0.10;;;0.10;;
48871;SDS011;36154;51.674;7.824;2023-04-24T03:31:02;0.20;;;0.20;;
48871;SDS011;36154;51.674;7.824;2023-04-24T03:33:28;0.17;;;0.17;;
48871;SDS011;36154;51.674;7.824;2023-04-24T03:35:55;0.17;;;0.17;;
48871;SDS011;36154;51.674;7.824;2023-04-24T03:38:21;0.20;;;0.20;;
48871;SDS011;36154;51.674;7.824;2023-04-24T03:40:46;0.20;;;0.20;;
48871;SDS011;36154;51.674;7.824;2023-04-24T03:43:11;0.10;;;0.10;;
48871;SDS011;36154;51.674;7.824;2023-04-24T03:45:36;0.13;;;0.13;;
48871;SDS011;36154;51.674;7.824;2023-04-24T03:48:02;0.30;;;0.17;;
48871;SDS011;36154;51.674;7.824;2023-04-24T03:50:27;0.15;;;0.15;;
48871;SDS011;36154;51.674;7.824;2023-04-24T03:52:54;0.20;;;0.20;;
48871;SDS011;36154;51.674;7.824;2023-04-24T03:55:19;0.10;;;0.10;;
48871;SDS011;36154;51.674;7.824;2023-04-24T03:57:44;0.20;;;0.20;;
48871;SDS011;36154;51.674;7.824;2023-04-24T04:00:10;0.20;;;0.20;;
48871;SDS011;36154;51.674;7.824;2023-04-24T04:02:36;2.90;;;0.60;;
48871;SDS011;36154;51.674;7.824;2023-04-24T04:05:01;0.25;;;0.20;;
48871;SDS011;36154;51.674;7.824;2023-04-24T04:07:26;0.22;;;0.22;;
48871;SDS011;36154;51.674;7.824;2023-04-24T04:09:52;0.30;;;0.25;;
48871;SDS011;36154;51.674;7.824;2023-04-24T04:12:17;0.17;;;0.17;;
48871;SDS011;36154;51.674;7.824;2023-04-24T04:14:42;0.10;;;0.10;;
48871;SDS011;36154;51.674;7.824;2023-04-24T04:17:08;0.30;;;0.30;;
48871;SDS011;36154;51.674;7.824;2023-04-24T04:19:33;0.30;;;0.30;;
48871;SDS011;36154;51.674;7.824;2023-04-24T04:21:58;0.20;;;0.20;;
48871;SDS011;36154;51.674;7.824;2023-04-24T04:24:24;0.30;;;0.30;;
48871;SDS011;36154;51.674;7.824;2023-04-24T04:26:49;1.58;;;0.30;;
48871;SDS011;36154;51.674;7.824;2023-04-24T04:29:16;1.00;;;0.20;;
48871;SDS011;36154;51.674;7.824;2023-04-24T04:31:43;0.10;;;0.10;;
48871;SDS011;36154;51.674;7.824;2023-04-24T04:34:08;0.30;;;0.30;;
48871;SDS011;36154;51.674;7.824;2023-04-24T04:36:34;0.28;;;0.28;;
48871;SDS011;36154;51.674;7.824;2023-04-24T04:39:01;0.22;;;0.22;;
48871;SDS011;36154;51.674;7.824;2023-04-24T04:41:27;0.13;;;0.13;;
48871;SDS011;36154;51.674;7.824;2023-04-24T04:43:53;0.85;;;0.40;;
48871;SDS011;36154;51.674;7.824;2023-04-24T04:46:18;0.30;;;0.30;;
48871;SDS011;36154;51.674;7.824;2023-04-24T04:48:43;0.25;;;0.22;;
48871;SDS011;36154;51.674;7.824;2023-04-24T04:51:09;0.28;;;0.25;;
48871;SDS011;36154;51.674;7.824;2023-04-24T04:53:34;0.20;;;0.20;;
48871;SDS011;36154;51.674;7.824;2023-04-24T04:56:00;0.47;;;0.30;;
48871;SDS011;36154;51.674;7.824;2023-04-24T04:58:25;0.60;;;0.28;;
48871;SDS011;36154;51.674;7.824;2023-04-24T05:00:51;0.98;;;0.45;;
48871;SDS011;36154;51.674;7.824;2023-04-24T05:03:17;2.50;;;1.08;;
48871;SDS011;36154;51.674;7.824;2023-04-24T05:05:42;5.00;;;0.98;;
48871;SDS011;36154;51.674;7.824;2023-04-24T05:08:07;4.05;;;3.45;;
48871;SDS011;36154;51.674;7.824;2023-04-24T05:10:33;6.07;;;4.57;;
48871;SDS011;36154;51.674;7.824;2023-04-24T05:12:58;7.55;;;5.13;;
48871;SDS011;36154;51.674;7.824;2023-04-24T05:15:23;9.02;;;5.88;;
48871;SDS011;36154;51.674;7.824;2023-04-24T05:17:49;8.00;;;5.43;;
48871;SDS011;36154;51.674;7.824;2023-04-24T05:20:14;9.75;;;5.85;;
48871;SDS011;36154;51.674;7.824;2023-04-24T05:22:40;9.50;;;5.60;;
48871;SDS011;36154;51.674;7.824;2023-04-24T05:25:05;10.70;;;6.35;;
48871;SDS011;36154;51.674;7.824;2023-04-24T05:27:30;7.70;;;5.10;;
48871;SDS011;36154;51.674;7.824;2023-04-24T05:29:56;5.30;;;3.92;;
48871;SDS011;36154;51.674;7.824;2023-04-24T05:32:21;9.20;;;3.67;;
48871;SDS011;36154;51.674;7.824;2023-04-24T05:34:46;7.07;;;3.83;;
48871;SDS011;36154;51.674;7.824;2023-04-24T05:37:12;3.78;;;3.25;;
48871;SDS011;36154;51.674;7.824;2023-04-24T05:39:37;4.60;;;2.90;;
48871;SDS011;36154;51.674;7.824;2023-04-24T05:42:03;4.22;;;3.42;;
48871;SDS011;36154;51.674;7.824;2023-04-24T05:44:29;6.00;;;2.83;;
48871;SDS011;36154;51.674;7.824;2023-04-24T05:46:55;6.63;;;2.75;;
48871;SDS011;36154;51.674;7.824;2023-04-24T05:49:21;2.40;;;2.20;;
48871;SDS011;36154;51.674;7.824;2023-04-24T05:51:47;2.88;;;2.53;;
48871;SDS011;36154;51.674;7.824;2023-04-24T05:54:12;5.57;;;3.10;;
48871;SDS011;36154;51.674;7.824;2023-04-24T05:56:38;6.38;;;2.97;;
48871;SDS011;36154;51.674;7.824;2023-04-24T05:59:04;3.38;;;2.35;;
48871;SDS011;36154;51.674;7.824;2023-04-24T06:01:29;3.67;;;1.80;;
48871;SDS011;36154;51.674;7.824;2023-04-24T06:03:54;2.40;;;1.67;;
48871;SDS011;36154;51.674;7.824;2023-04-24T06:06:20;2.80;;;1.55;;
48871;SDS011;36154;51.674;7.824;2023-04-24T06:08:45;1.60;;;1.50;;
48871;SDS011;36154;51.674;7.824;2023-04-24T06:11:11;1.65;;;1.25;;
48871;SDS011;36154;51.674;7.824;2023-04-24T06:13:36;1.15;;;1.02;;
48871;SDS011;36154;51.674;7.824;2023-04-24T06:16:01;1.00;;;1.00;;
48871;SDS011;36154;51.674;7.824;2023-04-24T06:18:27;1.33;;;0.88;;
48871;SDS011;36154;51.674;7.824;2023-04-24T06:20:52;0.95;;;0.90;;
48871;SDS011;36154;51.674;7.824;2023-04-24T06:23:17;0.70;;;0.70;;
48871;SDS011;36154;51.674;7.824;2023-04-24T06:25:42;0.70;;;0.70;;
48871;SDS011;36154;51.674;7.824;2023-04-24T06:28:08;0.82;;;0.73;;
48871;SDS011;36154;51.674;7.824;2023-04-24T06:30:33;1.02;;;0.95;;
48871;SDS011;36154;51.674;7.824;2023-04-24T06:32:58;0.80;;;0.80;;
48871;SDS011;36154;51.674;7.824;2023-04-24T06:35:23;1.00;;;1.00;;
48871;SDS011;36154;51.674;7.824;2023-04-24T06:37:49;1.00;;;0.75;;
48871;SDS011;36154;51.674;7.824;2023-04-24T06:40:15;0.90;;;0.90;;
48871;SDS011;36154;51.674;7.824;2023-04-24T06:42:40;1.38;;;1.02;;
48871;SDS011;36154;51.674;7.824;2023-04-24T06:45:05;1.55;;;1.10;;
48871;SDS011;36154;51.674;7.824;2023-04-24T06:47:31;2.30;;;1.10;;
48871;SDS011;36154;51.674;7.824;2023-04-24T06:49:57;1.10;;;1.10;;
48871;SDS011;36154;51.674;7.824;2023-04-24T06:52:22;1.10;;;0.95;;
48871;SDS011;36154;51.674;7.824;2023-04-24T06:54:47;1.10;;;1.10;;
48871;SDS011;36154;51.674;7.824;2023-04-24T06:57:13;2.42;;;0.95;;
48871;SDS011;36154;51.674;7.824;2023-04-24T06:59:38;0.82;;;0.82;;
48871;SDS011;36154;51.674;7.824;2023-04-24T07:02:03;1.35;;;1.05;;
48871;SDS011;36154;51.674;7.824;2023-04-24T07:04:29;1.95;;;1.17;;
48871;SDS011;36154;51.674;7.824;2023-04-24T07:06:55;1.33;;;0.80;;
48871;SDS011;36154;51.674;7.824;2023-04-24T07:09:21;1.17;;;1.17;;
48871;SDS011;36154;51.674;7.824;2023-04-24T07:11:47;1.15;;;1.13;;
48871;SDS011;36154;51.674;7.824;2023-04-24T07:14:13;1.30;;;1.20;;
48871;SDS011;36154;51.674;7.824;2023-04-24T07:16:38;1.10;;;0.90;;
48871;SDS011;36154;51.674;7.824;2023-04-24T07:19:04;1.30;;;1.30;;
48871;SDS011;36154;51.674;7.824;2023-04-24T07:21:29;1.20;;;1.00;;
48871;SDS011;36154;51.674;7.824;2023-04-24T07:23:56;0.88;;;0.88;;
48871;SDS011;36154;51.674;7.824;2023-04-24T07:26:21;0.70;;;0.70;;
48871;SDS011;36154;51.674;7.824;2023-04-24T07:28:46;0.77;;;0.77;;
48871;SDS011;36154;51.674;7.824;2023-04-24T07:31:12;1.10;;;1.10;;
48871;SDS011;36154;51.674;7.824;2023-04-24T07:33:37;0.80;;;0.80;;
48871;SDS011;36154;51.674;7.824;2023-04-24T07:36:03;0.90;;;0.90;;
48871;SDS011;36154;51.674;7.824;2023-04-24T07:38:29;1.30;;;1.20;;
48871;SDS011;36154;51.674;7.824;2023-04-24T07:40:55;1.10;;;1.00;;
48871;SDS011;36154;51.674;7.824;2023-04-24T07:43:20;1.20;;;1.10;;
48871;SDS011;36154;51.674;7.824;2023-04-24T07:45:46;1.10;;;1.10;;
48871;SDS011;36154;51.674;7.824;2023-04-24T07:48:11;0.90;;;0.90;;
48871;SDS011;36154;51.674;7.824;2023-04-24T07:50:39;1.10;;;1.10;;
48871;SDS011;36154;51.674;7.824;2023-04-24T07:53:05;0.80;;;0.80;;
48871;SDS011;36154;51.674;7.824;2023-04-24T07:55:30;0.70;;;0.70;;
48871;SDS011;36154;51.674;7.824;2023-04-24T07:57:56;1.35;;;0.95;;
48871;SDS011;36154;51.674;7.824;2023-04-24T08:00:21;0.70;;;0.70;;
48871;SDS011;36154;51.674;7.824;2023-04-24T08:02:46;0.70;;;0.70;;
48871;SDS011;36154;51.674;7.824;2023-04-24T08:05:12;1.15;;;1.05;;
48871;SDS011;36154;51.674;7.824;2023-04-24T08:07:37;0.93;;;0.88;;
48871;SDS011;36154;51.674;7.824;2023-04-24T08:10:03;0.95;;;0.88;;
48871;SDS011;36154;51.674;7.824;2023-04-24T08:12:29;0.70;;;0.70;;
48871;SDS011;36154;51.674;7.824;2023-04-24T08:14:54;0.80;;;0.80;;
48871;SDS011;36154;51.674;7.824;2023-04-24T08:17:19;0.70;;;0.70;;
48871;SDS011;36154;51.674;7.824;2023-04-24T08:19:45;0.80;;;0.80;;
48871;SDS011;36154;51.674;7.824;2023-04-24T08:22:13;0.88;;;0.88;;
48871;SDS011;36154;51.674;7.824;2023-04-24T08:24:38;0.60;;;0.60;;
48871;SDS011;36154;51.674;7.824;2023-04-24T08:27:03;0.70;;;0.70;;
48871;SDS011;36154;51.674;7.824;2023-04-24T08:29:29;0.50;;;0.50;;
48871;SDS011;36154;51.674;7.824;2023-04-24T08:31:54;0.80;;;0.80;;
48871;SDS011;36154;51.674;7.824;2023-04-24T08:34:20;0.55;;;0.55;;
48871;SDS011;36154;51.674;7.824;2023-04-24T08:36:46;0.70;;;0.70;;
48871;SDS011;36154;51.674;7.824;2023-04-24T08:39:11;0.73;;;0.73;;
48871;SDS011;36154;51.674;7.824;2023-04-24T08:41:36;0.63;;;0.63;;
48871;SDS011;36154;51.674;7.824;2023-04-24T08:44:02;0.70;;;0.70;;
48871;SDS011;36154;51.674;7.824;2023-04-24T08:46:29;1.08;;;0.88;;
48871;SDS011;36154;51.674;7.824;2023-04-24T08:48:55;1.35;;;0.77;;
48871;SDS011;36154;51.674;7.824;2023-04-24T08:51:21;1.83;;;0.80;;
48871;SDS011;36154;51.674;7.824;2023-04-24T08:53:47;1.60;;;0.55;;
48871;SDS011;36154;51.674;7.824;2023-04-24T08:56:13;2.67;;;0.82;;
48871;SDS011;36154;51.674;7.824;2023-04-24T08:58:38;2.60;;;0.70;;
48871;SDS011;36154;51.674;7.824;2023-04-24T09:01:04;2.35;;;0.88;;
48871;SDS011;36154;51.674;7.824;2023-04-24T09:03:30;2.20;;;1.20;;
48871;SDS011;36154;51.674;7.824;2023-04-24T09:05:56;1.60;;;0.70;;
48871;SDS011;36154;51.674;7.824;2023-04-24T09:08:24;2.03;;;0.75;;
48871;SDS011;36154;51.674;7.824;2023-04-24T09:10:51;0.73;;;0.70;;
48871;SDS011;36154;51.674;7.824;2023-04-24T09:13:16;0.60;;;0.60;;
48871;SDS011;36154;51.674;7.824;2023-04-24T09:15:43;0.80;;;0.80;;
48871;SDS011;36154;51.674;7.824;2023-04-24T09:18:08;0.85;;;0.85;;
48871;SDS011;36154;51.674;7.824;2023-04-24T09:20:34;2.33;;;0.90;;
48871;SDS011;36154;51.674;7.824;2023-04-24T09:23:02;0.65;;;0.65;;
48871;SDS011;36154;51.674;7.824;2023-04-24T09:25:31;2.28;;;0.70;;
48871;SDS011;36154;51.674;7.824;2023-04-24T09:28:00;1.40;;;0.60;;
48871;SDS011;36154;51.674;7.824;2023-04-24T09:30:27;0.57;;;0.57;;
48871;SDS011;36154;51.674;7.824;2023-04-24T09:35:50;0.50;;;0.50;;
48871;SDS011;36154;51.674;7.824;2023-04-24T09:38:16;0.88;;;0.50;;
48871;SDS011;36154;51.674;7.824;2023-04-24T09:40:42;0.50;;;0.50;;
48871;SDS011;36154;51.674;7.824;2023-04-24T09:43:10;0.60;;;0.60;;
48871;SDS011;36154;51.674;7.824;2023-04-24T09:45:36;1.48;;;0.60;;
48871;SDS011;36154;51.674;7.824;2023-04-24T09:48:05;0.47;;;0.47;;
48871;SDS011;36154;51.674;7.824;2023-04-24T09:50:34;1.67;;;0.50;;
48871;SDS011;36154;51.674;7.824;2023-04-24T09:53:04;0.45;;;0.45;;
48871;SDS011;36154;51.674;7.824;2023-04-24T09:55:33;0.40;;;0.40;;
48871;SDS011;36154;51.674;7.824;2023-04-24T09:58:05;0.93;;;0.40;;
48871;SDS011;36154;51.674;7.824;2023-04-24T10:00:32;0.40;;;0.40;;
48871;SDS011;36154;51.674;7.824;2023-04-24T10:02:59;0.40;;;0.40;;
48871;SDS011;36154;51.674;7.824;2023-04-24T10:05:29;0.40;;;0.40;;
48871;SDS011;36154;51.674;7.824;2023-04-24T10:07:57;0.45;;;0.40;;
48871;SDS011;36154;51.674;7.824;2023-04-24T10:10:27;1.25;;;0.40;;
48871;SDS011;36154;51.674;7.824;2023-04-24T10:12:53;1.48;;;0.40;;
48871;SDS011;36154;51.674;7.824;2023-04-24T10:15:19;0.60;;;0.38;;
48871;SDS011;36154;51.674;7.824;2023-04-24T10:17:47;0.30;;;0.30;;
48871;SDS011;36154;51.674;7.824;2023-04-24T10:20:17;0.30;;;0.30;;
48871;SDS011;36154;51.674;7.824;2023-04-24T10:22:44;0.70;;;0.63;;
48871;SDS011;36154;51.674;7.824;2023-04-24T10:25:14;0.52;;;0.50;;
48871;SDS011;36154;51.674;7.824;2023-04-24T10:27:41;2.85;;;0.80;;
48871;SDS011;36154;51.674;7.824;2023-04-24T10:30:11;2.25;;;0.80;;
48871;SDS011;36154;51.674;7.824;2023-04-24T10:32:37;2.03;;;0.68;;
48871;SDS011;36154;51.674;7.824;2023-04-24T10:35:02;3.28;;;1.02;;
48871;SDS011;36154;51.674;7.824;2023-04-24T10:37:28;4.07;;;1.20;;
48871;SDS011;36154;51.674;7.824;2023-04-24T10:39:59;4.63;;;1.52;;
48871;SDS011;36154;51.674;7.824;2023-04-24T10:42:26;5.70;;;1.23;;
48871;SDS011;36154;51.674;7.824;2023-04-24T10:44:52;3.38;;;1.30;;
48871;SDS011;36154;51.674;7.824;2023-04-24T10:47:18;3.10;;;1.10;;
48871;SDS011;36154;51.674;7.824;2023-04-24T10:49:44;2.72;;;1.00;;
48871;SDS011;36154;51.674;7.824;2023-04-24T10:52:10;2.67;;;1.10;;
48871;SDS011;36154;51.674;7.824;2023-04-24T10:54:36;5.07;;;1.48;;
48871;SDS011;36154;51.674;7.824;2023-04-24T11:00:10;3.78;;;1.27;;
48871;SDS011;36154;51.674;7.824;2023-04-24T11:02:46;3.03;;;1.00;;
48871;SDS011;36154;51.674;7.824;2023-04-24T11:05:18;2.42;;;1.25;;
48871;SDS011;36154;51.674;7.824;2023-04-24T11:10:39;2.05;;;0.82;;
48871;SDS011;36154;51.674;7.824;2023-04-24T11:13:17;2.50;;;1.10;;
48871;SDS011;36154;51.674;7.824;2023-04-24T11:15:58;2.35;;;0.85;;
48871;SDS011;36154;51.674;7.824;2023-04-24T11:18:37;1.50;;;0.82;;
48871;SDS011;36154;51.674;7.824;2023-04-24T11:21:11;1.63;;;0.90;;
48871;SDS011;36154;51.674;7.824;2023-04-24T11:23:37;2.65;;;0.90;;
48871;SDS011;36154;51.674;7.824;2023-04-24T11:26:12;1.00;;;0.80;;
48871;SDS011;36154;51.674;7.824;2023-04-24T11:28:49;1.05;;;0.70;;
48871;SDS011;36154;51.674;7.824;2023-04-24T11:31:37;0.67;;;0.60;;
48871;SDS011;36154;51.674;7.824;2023-04-24T11:34:07;2.28;;;0.63;;
48871;SDS011;36154;51.674;7.824;2023-04-24T11:36:34;5.15;;;0.63;;
48871;SDS011;36154;51.674;7.824;2023-04-24T11:39:00;3.90;;;0.80;;
48871;SDS011;36154;51.674;7.824;2023-04-24T11:41:26;3.10;;;0.90;;
48871;SDS011;36154;51.674;7.824;2023-04-24T11:43:52;1.70;;;0.70;;
48871;SDS011;36154;51.674;7.824;2023-04-24T11:46:20;1.60;;;0.77;;
48871;SDS011;36154;51.674;7.824;2023-04-24T11:48:46;2.35;;;0.68;;
48871;SDS011;36154;51.674;7.824;2023-04-24T11:51:12;0.88;;;0.40;;
48871;SDS011;36154;51.674;7.824;2023-04-24T11:53:37;2.63;;;0.30;;
48871;SDS011;36154;51.674;7.824;2023-04-24T11:56:03;0.90;;;0.30;;
48871;SDS011;36154;51.674;7.824;2023-04-24T11:58:34;0.43;;;0.25;;
48871;SDS011;36154;51.674;7.824;2023-04-24T12:01:00;0.68;;;0.50;;
48871;SDS011;36154;51.674;7.824;2023-04-24T12:03:26;2.90;;;0.50;;
48871;SDS011;36154;51.674;7.824;2023-04-24T12:05:51;2.88;;;0.43;;
48871;SDS011;36154;51.674;7.824;2023-04-24T12:08:29;2.80;;;0.70;;
48871;SDS011;36154;51.674;7.824;2023-04-24T12:10:54;0.68;;;0.50;;
48871;SDS011;36154;51.674;7.824;2023-04-24T12:13:19;1.90;;;0.70;;
48871;SDS011;36154;51.674;7.824;2023-04-24T12:15:45;4.15;;;0.70;;
48871;SDS011;36154;51.674;7.824;2023-04-24T12:18:11;0.70;;;0.50;;
48871;SDS011;36154;51.674;7.824;2023-04-24T12:20:37;0.85;;;0.70;;
48871;SDS011;36154;51.674;7.824;2023-04-24T12:23:03;2.38;;;0.68;;
48871;SDS011;36154;51.674;7.824;2023-04-24T12:25:29;0.70;;;0.60;;
48871;SDS011;36154;51.674;7.824;2023-04-24T12:30:31;2.25;;;0.60;;
48871;SDS011;36154;51.674;7.824;2023-04-24T12:33:01;3.45;;;0.70;;
48871;SDS011;36154;51.674;7.824;2023-04-24T12:35:29;1.35;;;0.82;;
48871;SDS011;36154;51.674;7.824;2023-04-24T12:38:10;3.50;;;0.90;;
48871;SDS011;36154;51.674;7.824;2023-04-24T12:40:39;1.05;;;0.60;;
48871;SDS011;36154;51.674;7.824;2023-04-24T12:43:16;0.77;;;0.65;;
48871;SDS011;36154;51.674;7.824;2023-04-24T12:45:42;3.25;;;0.80;;
48871;SDS011;36154;51.674;7.824;2023-04-24T12:48:07;0.73;;;0.73;;
48871;SDS011;36154;51.674;7.824;2023-04-24T12:50:33;2.95;;;0.82;;
48871;SDS011;36154;51.674;7.824;2023-04-24T12:52:58;1.40;;;0.80;;
48871;SDS011;36154;51.674;7.824;2023-04-24T12:55:24;1.17;;;0.68;;
48871;SDS011;36154;51.674;7.824;2023-04-24T12:57:50;1.33;;;0.60;;
48871;SDS011;36154;51.674;7.824;2023-04-24T13:00:15;2.20;;;0.60;;
48871;SDS011;36154;51.674;7.824;2023-04-24T13:02:41;6.85;;;1.00;;
48871;SDS011;36154;51.674;7.824;2023-04-24T13:05:06;1.20;;;0.80;;
48871;SDS011;36154;51.674;7.824;2023-04-24T13:07:32;1.27;;;0.70;;
48871;SDS011;36154;51.674;7.824;2023-04-24T13:09:57;1.77;;;0.80;;
48871;SDS011;36154;51.674;7.824;2023-04-24T13:12:23;4.57;;;1.35;;
48871;SDS011;36154;51.674;7.824;2023-04-24T13:14:51;0.82;;;0.77;;
48871;SDS011;36154;51.674;7.824;2023-04-24T13:17:17;1.70;;;0.80;;
48871;SDS011;36154;51.674;7.824;2023-04-24T13:19:43;1.15;;;0.85;;
48871;SDS011;36154;51.674;7.824;2023-04-24T13:22:09;1.38;;;0.80;;
48871;SDS011;36154;51.674;7.824;2023-04-24T13:24:37;1.92;;;0.80;;
48871;SDS011;36154;51.674;7.824;2023-04-24T13:27:03;2.80;;;0.80;;
48871;SDS011;36154;51.674;7.824;2023-04-24T13:29:28;1.23;;;0.93;;
48871;SDS011;36154;51.674;7.824;2023-04-24T13:31:54;2.75;;;1.10;;
48871;SDS011;36154;51.674;7.824;2023-04-24T13:34:20;1.13;;;0.80;;
48871;SDS011;36154;51.674;7.824;2023-04-24T13:36:46;1.88;;;0.80;;
48871;SDS011;36154;51.674;7.824;2023-04-24T13:39:11;1.90;;;0.80;;
48871;SDS011;36154;51.674;7.824;2023-04-24T13:41:36;1.35;;;0.70;;
48871;SDS011;36154;51.674;7.824;2023-04-24T13:44:04;0.98;;;0.80;;
48871;SDS011;36154;51.674;7.824;2023-04-24T13:46:31;1.90;;;0.70;;
48871;SDS011;36154;51.674;7.824;2023-04-24T13:48:56;2.72;;;0.73;;
48871;SDS011;36154;51.674;7.824;2023-04-24T13:51:22;0.80;;;0.70;;
48871;SDS011;36154;51.674;7.824;2023-04-24T13:53:48;2.35;;;0.90;;
48871;SDS011;36154;51.674;7.824;2023-04-24T13:56:13;1.77;;;0.85;;
48871;SDS011;36154;51.674;7.824;2023-04-24T13:58:39;0.90;;;0.73;;
48871;SDS011;36154;51.674;7.824;2023-04-24T14:01:06;2.40;;;0.90;;
48871;SDS011;36154;51.674;7.824;2023-04-24T14:03:32;0.85;;;0.65;;
48871;SDS011;36154;51.674;7.824;2023-04-24T14:05:58;1.50;;;0.75;;
48871;SDS011;36154;51.674;7.824;2023-04-24T14:08:23;0.63;;;0.63;;
48871;SDS011;36154;51.674;7.824;2023-04-24T14:10:49;2.15;;;0.80;;
48871;SDS011;36154;51.674;7.824;2023-04-24T14:13:15;0.85;;;0.57;;
48871;SDS011;36154;51.674;7.824;2023-04-24T14:15:41;2.95;;;1.02;;
48871;SDS011;36154;51.674;7.824;2023-04-24T14:18:06;3.00;;;1.02;;
48871;SDS011;36154;51.674;7.824;2023-04-24T14:20:32;0.70;;;0.60;;
48871;SDS011;36154;51.674;7.824;2023-04-24T14:22:57;1.13;;;0.50;;
48871;SDS011;36154;51.674;7.824;2023-04-24T14:25:25;0.57;;;0.57;;
48871;SDS011;36154;51.674;7.824;2023-04-24T14:27:51;1.45;;;0.50;;
48871;SDS011;36154;51.674;7.824;2023-04-24T14:30:17;7.10;;;1.08;;
48871;SDS011;36154;51.674;7.824;2023-04-24T14:32:42;1.05;;;0.73;;
48871;SDS011;36154;51.674;7.824;2023-04-24T14:35:07;2.97;;;0.50;;
48871;SDS011;36154;51.674;7.824;2023-04-24T14:37:33;0.75;;;0.40;;
48871;SDS011;36154;51.674;7.824;2023-04-24T14:39:59;0.32;;;0.32;;
48871;SDS011;36154;51.674;7.824;2023-04-24T14:42:24;0.50;;;0.30;;
48871;SDS011;36154;51.674;7.824;2023-04-24T14:44:49;0.32;;;0.20;;
48871;SDS011;36154;51.674;7.824;2023-04-24T14:47:15;0.75;;;0.32;;
48871;SDS011;36154;51.674;7.824;2023-04-24T14:49:42;0.20;;;0.20;;
48871;SDS011;36154;51.674;7.824;2023-04-24T14:52:08;0.30;;;0.30;;
48871;SDS011;36154;51.674;7.824;2023-04-24T14:54:34;0.20;;;0.20;;